createdAt,value
2024-01-20T00:02:25.092Z,-1.95
2024-01-20T00:05:28.451Z,-2.15
2024-01-20T00:08:31.804Z,-2.09
2024-01-20T00:11:36.683Z,-2.16
2024-01-20T00:14:40.094Z,-2.10
2024-01-20T00:17:43.634Z,-2.23
2024-01-20T00:20:48.129Z,-2.16
2024-01-20T00:23:51.665Z,-2.25
2024-01-20T00:26:56.794Z,-2.29
2024-01-20T00:30:01.035Z,-2.18
2024-01-20T00:33:05.827Z,-2.35
2024-01-20T00:36:10.018Z,-2.29
2024-01-20T00:39:14.020Z,-2.31
2024-01-20T00:42:18.637Z,-2.27
2024-01-20T00:45:21.699Z,-2.40
2024-01-20T00:48:25.007Z,-2.45
2024-01-20T00:51:28.251Z,-2.55
2024-01-20T00:54:31.505Z,-2.59
2024-01-20T00:57:36.110Z,-2.58
2024-01-20T01:00:40.500Z,-2.66
2024-01-20T01:03:44.225Z,-2.49
2024-01-20T01:06:47.606Z,-2.63
2024-01-20T01:09:50.802Z,-2.66
2024-01-20T01:12:55.470Z,-2.71
2024-01-20T01:15:58.644Z,-2.66
2024-01-20T01:19:01.819Z,-2.66
2024-01-20T01:22:05.564Z,-2.87
2024-01-20T01:25:10.535Z,-2.82
2024-01-20T01:28:15.376Z,-2.84
2024-01-20T01:31:20.985Z,-2.85
2024-01-20T01:34:24.312Z,-2.86
2024-01-20T01:37:27.569Z,-2.76
2024-01-20T01:40:30.839Z,-2.90
2024-01-20T01:43:35.545Z,-2.91
2024-01-20T01:46:39.545Z,-2.92
2024-01-20T01:49:43.200Z,-2.91
2024-01-20T01:52:48.898Z,-2.86
2024-01-20T01:55:54.166Z,-2.90
2024-01-20T01:58:59.844Z,-2.92
2024-01-20T02:02:03.319Z,-3.01
2024-01-20T02:05:07.122Z,-3.00
2024-01-20T02:08:10.594Z,-3.09
2024-01-20T02:11:15.658Z,-3.12
2024-01-20T02:14:21.531Z,-3.13
2024-01-20T02:17:25.427Z,-3.04
2024-01-20T02:20:28.594Z,-3.18
2024-01-20T02:23:39.125Z,-3.22
2024-01-20T02:26:42.615Z,-3.23
2024-01-20T02:29:46.225Z,-3.19
2024-01-20T02:32:49.682Z,-3.26
2024-01-20T02:35:53.394Z,-3.13
2024-01-20T02:38:58.185Z,-3.22
2024-01-20T02:42:01.841Z,-3.30
2024-01-20T02:45:05.895Z,-3.24
2024-01-20T02:48:11.234Z,-3.25
2024-01-20T02:51:14.696Z,-3.25
2024-01-20T02:54:19.471Z,-3.18
2024-01-20T02:57:22.981Z,-3.26
2024-01-20T03:00:29.384Z,-3.26
2024-01-20T03:03:32.758Z,-3.19
2024-01-20T03:06:35.960Z,-3.34
2024-01-20T03:09:40.476Z,-3.29
2024-01-20T03:12:43.975Z,-3.21
2024-01-20T03:15:47.596Z,-3.27
2024-01-20T03:18:51.276Z,-3.28
2024-01-20T03:21:54.618Z,-3.25
2024-01-20T03:24:59.364Z,-3.42
2024-01-20T03:28:02.478Z,-3.35
2024-01-20T03:31:06.126Z,-3.33
2024-01-20T03:34:10.148Z,-3.35
2024-01-20T03:37:13.357Z,-3.34
2024-01-20T03:40:18.027Z,-3.29
2024-01-20T03:43:21.295Z,-3.27
2024-01-20T03:46:25.452Z,-3.30
2024-01-20T03:49:29.420Z,-3.38
2024-01-20T03:52:32.602Z,-3.35
2024-01-20T03:55:37.484Z,-3.44
2024-01-20T03:58:41.318Z,-3.52
2024-01-20T04:01:44.555Z,-3.47
2024-01-20T04:04:47.758Z,-3.58
2024-01-20T04:07:51.078Z,-3.45
2024-01-20T04:10:55.972Z,-3.56
2024-01-20T04:13:59.247Z,-3.52
2024-01-20T04:17:02.419Z,-3.58
2024-01-20T04:20:06.948Z,-3.56
2024-01-20T04:23:10.201Z,-3.61
2024-01-20T04:26:14.853Z,-3.55
2024-01-20T04:29:18.140Z,-3.63
2024-01-20T04:32:21.205Z,-3.43
2024-01-20T04:35:24.469Z,-3.55
2024-01-20T04:38:28.369Z,-3.48
2024-01-20T04:41:33.048Z,-3.34
2024-01-20T04:44:36.141Z,-3.30
2024-01-20T04:47:39.288Z,-3.28
2024-01-20T04:50:42.570Z,-3.27
2024-01-20T04:53:45.870Z,-3.31
2024-01-20T04:56:50.626Z,-3.34
2024-01-20T04:59:53.883Z,-3.29
2024-01-20T05:02:57.073Z,-3.17
2024-01-20T05:06:00.444Z,-3.12
2024-01-20T05:09:05.930Z,-3.10
2024-01-20T05:12:10.839Z,-2.93
2024-01-20T05:15:14.108Z,-2.96
2024-01-20T05:18:17.749Z,-2.91
2024-01-20T05:21:21.067Z,-2.84
2024-01-20T05:24:24.214Z,-2.88
2024-01-20T05:27:29.048Z,-2.87
2024-01-20T05:30:32.466Z,-2.80
2024-01-20T05:33:36.083Z,-2.82
2024-01-20T05:36:39.365Z,-2.81
2024-01-20T05:39:42.662Z,-2.84
2024-01-20T05:42:47.468Z,-2.78
2024-01-20T05:45:50.539Z,-2.83
2024-01-20T05:48:53.843Z,-2.79
2024-01-20T05:51:57.054Z,-2.65
2024-01-20T05:55:00.332Z,-2.62
2024-01-20T05:58:05.203Z,-2.49
2024-01-20T06:01:11.299Z,-2.45
2024-01-20T06:04:14.536Z,-2.54
2024-01-20T06:07:17.798Z,-2.47
2024-01-20T06:10:21.111Z,-2.49
2024-01-20T06:13:25.684Z,-2.46
2024-01-20T06:16:28.781Z,-2.45
2024-01-20T06:19:31.837Z,-2.39
2024-01-20T06:22:35.123Z,-2.37
2024-01-20T06:25:38.317Z,-2.24
2024-01-20T06:28:43.111Z,-2.24
2024-01-20T06:31:46.484Z,-2.18
2024-01-20T06:34:49.654Z,-2.25
2024-01-20T06:37:52.980Z,-2.33
2024-01-20T06:40:56.320Z,-2.31
2024-01-20T06:44:00.943Z,-2.20
2024-01-20T06:47:04.187Z,-2.15
2024-01-20T06:50:09.695Z,-2.14
2024-01-20T06:53:12.882Z,-2.10
2024-01-20T06:56:16.610Z,-2.09
2024-01-20T06:59:21.093Z,-2.05
2024-01-20T07:02:24.153Z,-2.12
2024-01-20T07:05:27.420Z,-2.19
2024-01-20T07:08:30.814Z,-2.13
2024-01-20T07:11:33.988Z,-2.12
2024-01-20T07:14:38.541Z,-2.09
2024-01-20T07:17:41.656Z,-2.07
2024-01-20T07:20:46.011Z,-2.09
2024-01-20T07:23:49.111Z,-1.98
2024-01-20T07:26:52.379Z,-2.08
2024-01-20T07:29:56.954Z,-1.81
2024-01-20T07:33:00.354Z,-1.83
2024-01-20T07:36:04.862Z,-1.71
2024-01-20T07:39:08.173Z,-1.62
2024-01-20T07:42:12.118Z,-1.53
2024-01-20T07:45:16.740Z,-1.43
2024-01-20T07:48:20.654Z,-1.33
2024-01-20T07:51:24.048Z,-1.34
2024-01-20T07:54:27.294Z,-1.31
2024-01-20T07:57:30.535Z,-1.28
2024-01-20T08:00:35.222Z,-1.22
2024-01-20T08:03:38.548Z,-1.39
2024-01-20T08:06:41.762Z,-1.30
2024-01-20T08:09:45.221Z,-1.25
2024-01-20T08:12:48.388Z,-1.28
2024-01-20T08:15:53.126Z,-1.30
2024-01-20T08:18:57.530Z,-1.34
2024-01-20T08:22:00.801Z,-1.23
2024-01-20T08:25:06.145Z,-1.28
2024-01-20T08:28:12.008Z,-1.23
2024-01-20T08:31:19.819Z,-1.28
2024-01-20T08:34:23.276Z,-1.11
2024-01-20T08:37:26.702Z,-1.07
2024-01-20T08:40:29.819Z,-1.04
2024-01-20T08:43:36.168Z,-1.11
2024-01-20T08:46:40.771Z,-1.16
2024-01-20T08:49:43.947Z,-1.14
2024-01-20T08:52:47.564Z,-0.96
2024-01-20T08:55:50.712Z,-0.98
2024-01-20T08:58:53.865Z,-1.16
2024-01-20T09:01:58.407Z,-0.90
2024-01-20T09:05:04.025Z,-0.81
2024-01-20T09:08:10.748Z,-1.20
2024-01-20T09:11:14.481Z,-1.06
2024-01-20T09:14:17.748Z,-1.19
2024-01-20T09:17:22.483Z,-1.28
2024-01-20T09:20:25.916Z,-1.24
2024-01-20T09:23:29.149Z,-1.25
2024-01-20T09:26:32.426Z,-1.27
2024-01-20T09:29:39.132Z,-0.97
2024-01-20T09:32:44.570Z,-1.09
2024-01-20T09:35:48.329Z,-0.98
2024-01-20T09:38:51.572Z,-0.89
2024-01-20T09:41:55.341Z,-0.78
2024-01-20T09:44:59.625Z,-0.81
2024-01-20T09:48:05.440Z,-0.64
2024-01-20T09:51:09.727Z,-0.63
2024-01-20T09:54:14.670Z,-0.65
2024-01-20T09:57:18.585Z,-0.41
2024-01-20T10:00:26.273Z,-0.17
2024-01-20T10:03:32.628Z,-0.36
2024-01-20T10:06:36.521Z,-0.42
2024-01-20T10:09:40.467Z,-0.02
2024-01-20T10:12:43.785Z,-0.17
2024-01-20T10:15:47.606Z,-0.49
2024-01-20T10:18:58.372Z,-0.38
2024-01-20T10:22:01.739Z,-0.31
2024-01-20T10:25:08.561Z,-0.47
2024-01-20T10:28:13.454Z,-0.31
2024-01-20T10:31:16.675Z,-0.26
2024-01-20T10:34:21.876Z,-0.32
2024-01-20T10:37:31.957Z,-0.40
2024-01-20T10:40:41.615Z,-0.32
2024-01-20T10:43:55.189Z,-0.22
2024-01-20T10:47:05.240Z,-0.14
2024-01-20T10:50:13.482Z,-0.29
2024-01-20T10:53:16.842Z,-0.51
2024-01-20T10:56:20.524Z,-0.29
2024-01-20T10:59:28.493Z,-0.49
2024-01-20T11:02:31.759Z,-0.58
2024-01-20T11:05:36.637Z,-0.45
2024-01-20T11:08:51.410Z,-0.42
2024-01-20T11:12:02.097Z,-0.46
2024-01-20T11:15:12.683Z,-0.41
2024-01-20T11:18:19.699Z,-0.38
2024-01-20T11:21:24.389Z,-0.45
2024-01-20T11:24:41.616Z,-0.27
2024-01-20T11:27:48.780Z,-0.28
2024-01-20T11:30:52.290Z,-0.14
2024-01-20T11:33:55.807Z,0.07
2024-01-20T11:37:02.575Z,0.00
2024-01-20T11:40:09.059Z,-0.13
2024-01-20T11:43:13.454Z,-0.12
2024-01-20T11:46:17.012Z,-0.24
2024-01-20T11:49:20.322Z,-0.12
2024-01-20T11:52:25.194Z,-0.16
2024-01-20T11:55:28.370Z,-0.15
2024-01-20T11:58:32.800Z,-0.22
2024-01-20T12:01:36.132Z,-0.26
2024-01-20T12:04:39.343Z,-0.03
2024-01-20T12:07:44.090Z,-0.01
2024-01-20T12:10:47.941Z,-0.03
2024-01-20T12:13:51.950Z,-0.09
2024-01-20T12:16:55.807Z,0.22
2024-01-20T12:19:59.268Z,0.34
2024-01-20T12:23:04.643Z,0.33
2024-01-20T12:26:13.666Z,0.45
2024-01-20T12:29:17.109Z,0.45
2024-01-20T12:32:20.697Z,0.38
2024-01-20T12:35:23.936Z,0.28
2024-01-20T12:38:28.664Z,0.51
2024-01-20T12:41:31.913Z,0.36
2024-01-20T12:44:35.276Z,0.21
2024-01-20T12:47:38.442Z,0.37
2024-01-20T12:50:41.636Z,0.71
2024-01-20T12:53:46.245Z,0.77
2024-01-20T12:56:49.697Z,0.52
2024-01-20T12:59:53.118Z,0.53
2024-01-20T13:02:56.461Z,0.69
2024-01-20T13:05:59.749Z,0.48
2024-01-20T13:09:04.619Z,0.57
2024-01-20T13:12:10.501Z,0.59
2024-01-20T13:15:14.370Z,0.46
2024-01-20T13:18:17.605Z,0.36
2024-01-20T13:21:23.492Z,0.38
2024-01-20T13:24:30.340Z,0.33
2024-01-20T13:27:33.647Z,0.27
2024-01-20T13:30:37.090Z,0.24
2024-01-20T13:33:40.639Z,0.49
2024-01-20T13:36:43.992Z,0.46
2024-01-20T13:39:48.784Z,0.54
2024-01-20T13:42:52.522Z,0.49
2024-01-20T13:45:55.868Z,0.32
2024-01-20T13:49:00.857Z,0.18
2024-01-20T13:52:06.333Z,0.19
2024-01-20T13:55:11.001Z,0.07
2024-01-20T13:58:14.451Z,-0.10
2024-01-20T14:01:22.734Z,-0.06
2024-01-20T14:04:26.503Z,0.04
2024-01-20T14:07:29.808Z,-0.03
2024-01-20T14:10:34.633Z,-0.05
2024-01-20T14:13:37.838Z,0.02
2024-01-20T14:16:41.657Z,-0.24
2024-01-20T14:19:45.189Z,-0.25
2024-01-20T14:22:48.380Z,-0.17
2024-01-20T14:25:54.481Z,-0.32
2024-01-20T14:28:57.704Z,-0.28
2024-01-20T14:32:03.702Z,-0.22
2024-01-20T14:35:07.914Z,-0.35
2024-01-20T14:38:11.432Z,-0.27
2024-01-20T14:41:16.245Z,-0.45
2024-01-20T14:44:19.677Z,-0.46
2024-01-20T14:47:22.851Z,-0.65
2024-01-20T14:50:26.082Z,-0.61
2024-01-20T14:53:29.226Z,-0.75
2024-01-20T14:56:37.207Z,-0.84
2024-01-20T14:59:40.728Z,-0.95
2024-01-20T15:02:43.943Z,-0.98
2024-01-20T15:05:47.289Z,-1.06
2024-01-20T15:08:50.771Z,-1.01
2024-01-20T15:11:55.387Z,-1.04
2024-01-20T15:14:58.506Z,-1.10
2024-01-20T15:18:01.775Z,-1.14
2024-01-20T15:21:06.000Z,-1.10
2024-01-20T15:24:11.943Z,-1.18
2024-01-20T15:27:16.425Z,-1.21
2024-01-20T15:30:20.002Z,-1.22
2024-01-20T15:33:32.567Z,-1.20
2024-01-20T15:36:35.929Z,-1.18
2024-01-20T15:39:39.233Z,-1.23
2024-01-20T15:42:43.924Z,-1.23
2024-01-20T15:45:47.180Z,-1.28
2024-01-20T15:48:51.107Z,-1.24
2024-01-20T15:51:54.545Z,-1.32
2024-01-20T15:54:57.820Z,-1.35
2024-01-20T15:58:02.398Z,-1.28
2024-01-20T16:01:05.993Z,-1.41
2024-01-20T16:04:12.362Z,-1.46
2024-01-20T16:07:16.491Z,-1.51
2024-01-20T16:10:20.691Z,-1.54
2024-01-20T16:13:25.728Z,-1.67
2024-01-20T16:16:32.117Z,-1.65
2024-01-20T16:19:35.300Z,-1.61
2024-01-20T16:22:38.700Z,-1.77
2024-01-20T16:25:42.724Z,-1.72
2024-01-20T16:28:47.957Z,-1.83
2024-01-20T16:31:53.145Z,-1.76
2024-01-20T16:34:56.398Z,-1.82
2024-01-20T16:37:59.593Z,-1.85
2024-01-20T16:41:03.210Z,-1.85
2024-01-20T16:44:10.499Z,-1.85
2024-01-20T16:47:13.816Z,-1.79
2024-01-20T16:50:17.879Z,-1.95
2024-01-20T16:53:21.900Z,-1.93
2024-01-20T16:56:25.327Z,-1.94
2024-01-20T16:59:30.833Z,-1.98
2024-01-20T17:02:33.908Z,-1.96
2024-01-20T17:05:37.305Z,-1.98
2024-01-20T17:08:41.611Z,-2.00
2024-01-20T17:11:46.179Z,-2.06
2024-01-20T17:14:51.461Z,-2.04
2024-01-20T17:17:54.760Z,-1.95
2024-01-20T17:20:58.117Z,-2.12
2024-01-20T17:24:01.449Z,-2.10
2024-01-20T17:27:04.751Z,-2.13
2024-01-20T17:30:10.847Z,-2.15
2024-01-20T17:33:14.264Z,-2.19
2024-01-20T17:36:17.627Z,-2.17
2024-01-20T17:39:21.859Z,-2.18
2024-01-20T17:42:25.146Z,-2.28
2024-01-20T17:45:30.413Z,-2.33
2024-01-20T17:48:33.891Z,-2.17
2024-01-20T17:51:38.169Z,-2.30
2024-01-20T17:54:41.556Z,-2.34
2024-01-20T17:57:46.406Z,-2.42
2024-01-20T18:00:51.440Z,-2.25
2024-01-20T18:03:54.877Z,-2.33
2024-01-20T18:06:58.131Z,-2.30
2024-01-20T18:10:01.398Z,-2.25
2024-01-20T18:13:06.693Z,-2.30
2024-01-20T18:16:11.439Z,-2.25
2024-01-20T18:19:15.224Z,-2.17
2024-01-20T18:22:18.486Z,-2.17
2024-01-20T18:25:22.929Z,-2.33
2024-01-20T18:28:26.173Z,-2.24
2024-01-20T18:31:31.304Z,-2.22
2024-01-20T18:34:34.568Z,-2.21
2024-01-20T18:37:39.302Z,-2.20
2024-01-20T18:40:43.505Z,-2.09
2024-01-20T18:43:46.900Z,-2.12
2024-01-20T18:46:52.223Z,-2.07
2024-01-20T18:49:55.593Z,-2.01
2024-01-20T18:52:59.114Z,-2.03
2024-01-20T18:56:02.454Z,-1.99
2024-01-20T18:59:05.745Z,-1.88
2024-01-20T19:02:10.548Z,-1.92
2024-01-20T19:05:14.117Z,-1.99
2024-01-20T19:08:17.447Z,-1.93
2024-01-20T19:11:21.776Z,-1.90
2024-01-20T19:14:25.409Z,-1.92
2024-01-20T19:17:30.220Z,-1.93
2024-01-20T19:20:38.348Z,-1.83
2024-01-20T19:23:43.289Z,-1.88
2024-01-20T19:26:46.653Z,-1.94
2024-01-20T19:29:50.296Z,-2.02
2024-01-20T19:32:56.159Z,-1.93
2024-01-20T19:35:59.547Z,-1.88
2024-01-20T19:39:05.299Z,-1.99
2024-01-20T19:42:08.829Z,-1.90
2024-01-20T19:45:12.070Z,-1.97
2024-01-20T19:48:16.625Z,-1.96
2024-01-20T19:51:19.980Z,-1.84
2024-01-20T19:54:23.217Z,-1.99
2024-01-20T19:57:27.787Z,-1.85
2024-01-20T20:00:32.296Z,-1.87
2024-01-20T20:03:37.024Z,-1.76
2024-01-20T20:06:40.138Z,-1.71
2024-01-20T20:09:43.401Z,-1.67
2024-01-20T20:12:46.641Z,-1.73
2024-01-20T20:15:50.326Z,-1.62
2024-01-20T20:18:55.344Z,-1.68
2024-01-20T20:21:58.672Z,-1.63
2024-01-20T20:25:01.987Z,-1.54
2024-01-20T20:28:06.363Z,-1.49
2024-01-20T20:31:10.973Z,-1.42
2024-01-20T20:34:16.278Z,-1.46
2024-01-20T20:37:20.245Z,-1.31
2024-01-20T20:40:23.555Z,-1.33
2024-01-20T20:43:27.555Z,-1.39
2024-01-20T20:46:34.497Z,-1.35
2024-01-20T20:49:39.223Z,-1.13
2024-01-20T20:52:45.221Z,-1.21
2024-01-20T20:55:50.273Z,-1.10
2024-01-20T20:58:53.536Z,-1.28
2024-01-20T21:01:57.194Z,-1.31
2024-01-20T21:05:01.950Z,-1.30
2024-01-20T21:08:05.661Z,-1.24
2024-01-20T21:11:10.203Z,-1.25
2024-01-20T21:14:14.421Z,-1.16
2024-01-20T21:17:17.703Z,-1.25
2024-01-20T21:20:22.728Z,-1.18
2024-01-20T21:23:26.812Z,-1.13
2024-01-20T21:26:30.698Z,-1.13
2024-01-20T21:29:34.216Z,-1.09
2024-01-20T21:32:37.940Z,-1.13
2024-01-20T21:35:43.024Z,-1.21
2024-01-20T21:38:46.800Z,-1.20
2024-01-20T21:41:50.484Z,-1.16
2024-01-20T21:45:00.687Z,-1.09
2024-01-20T21:48:04.041Z,-1.12
2024-01-20T21:51:08.650Z,-1.21
2024-01-20T21:54:14.791Z,-1.06
2024-01-20T21:57:18.040Z,-1.09
2024-01-20T22:00:21.977Z,-1.13
2024-01-20T22:03:25.687Z,-1.24
2024-01-20T22:06:30.824Z,-1.23
2024-01-20T22:09:34.000Z,-1.10
2024-01-20T22:12:37.239Z,-1.07
2024-01-20T22:15:40.648Z,-1.13
2024-01-20T22:18:44.057Z,-1.10
2024-01-20T22:21:48.748Z,-1.19
2024-01-20T22:24:52.423Z,-1.04
2024-01-20T22:27:56.580Z,-1.06
2024-01-20T22:31:00.430Z,-1.13
2024-01-20T22:34:03.900Z,-1.02
2024-01-20T22:37:08.847Z,-1.05
2024-01-20T22:40:13.951Z,-1.06
2024-01-20T22:43:17.373Z,-0.94
2024-01-20T22:46:20.680Z,-1.09
2024-01-20T22:49:24.119Z,-1.04
2024-01-20T22:52:29.682Z,-1.10
2024-01-20T22:55:33.126Z,-1.10
2024-01-20T22:58:38.944Z,-1.00
2024-01-20T23:01:42.569Z,-1.07
2024-01-20T23:04:46.130Z,-1.06
2024-01-20T23:07:53.388Z,-1.03
2024-01-20T23:10:56.725Z,-0.91
2024-01-20T23:14:00.566Z,-1.08
2024-01-20T23:17:04.965Z,-1.10
2024-01-20T23:20:11.975Z,-1.08
2024-01-20T23:23:16.772Z,-1.07
2024-01-20T23:26:20.408Z,-1.02
2024-01-20T23:29:23.528Z,-1.13
2024-01-20T23:32:27.198Z,-1.12
2024-01-20T23:35:31.836Z,-1.16
2024-01-20T23:38:36.407Z,-1.00
2024-01-20T23:41:39.842Z,-1.05
2024-01-20T23:44:43.324Z,-1.04
2024-01-20T23:47:49.152Z,-0.96
2024-01-20T23:50:52.324Z,-0.88
2024-01-20T23:53:56.906Z,-0.78
2024-01-20T23:57:02.003Z,-0.81
